Time;durP1;ratioP1;P1;durP2;ratioP2;P2;SDS_P1;SDS_P2;PMS_P1;PMS_P2;Temp;Humidity;BMP_temperature;BMP_pressure;BME280_temperature;BME280_humidity;BME280_pressure;Samples;Min_cycle;Max_cycle;Signal;HPM_P1;HPM_P2
2022/08/12 00:44:24;;;;;;;;;;;26.00;34.10;;;;;;1512198;77;700;-66
2022/08/12 00:46:30;;;;;;;;;;;26.00;34.20;;;;;;1514241;77;703;-62
2022/08/12 00:48:32;;;;;;;;;;;25.90;33.60;;;;;;1520323;77;761;-64
2022/08/12 00:50:34;;;;;;;;;;;26.00;34.20;;;;;;1517457;77;699;-65
2022/08/12 00:52:35;;;;;;;;;;;26.00;34.10;;;;;;1514807;77;1153;-64
2022/08/12 00:54:39;;;;;;;;;;;26.00;34.00;;;;;;1516433;77;1948;-65
2022/08/12 00:56:41;;;;;;;;;;;26.00;34.00;;;;;;1515303;78;777;-65
2022/08/12 00:58:49;;;;;;;;;;;26.00;34.00;;;;;;1519142;77;802;-64
2022/08/12 01:00:50;;;;;;;;;;;26.00;34.00;;;;;;1513520;78;1723;-64
2022/08/12 01:02:54;;;;;;;;;;;26.00;34.10;;;;;;1505723;77;1152;-64
2022/08/12 01:11:56;;;;;;;;;;;26.00;34.00;;;;;;1522955;77;1643;-64
2022/08/12 01:13:59;;;;;;;;;;;26.00;33.90;;;;;;1517784;77;1227;-64
2022/08/12 01:16:02;;;;;;;;;;;26.00;33.90;;;;;;1512262;77;1924;-65
2022/08/12 01:18:07;;;;;;;;;;;26.00;33.90;;;;;;1504487;77;736;-65
2022/08/12 01:20:09;;;;;;;;;;;26.00;33.90;;;;;;1513924;77;781;-64
2022/08/12 01:22:18;;;;;;;;;;;26.00;33.90;;;;;;1520492;77;1565;-64
2022/08/12 01:24:39;;;;;;;;;;;26.00;33.80;;;;;;1516174;77;1698;-64
2022/08/12 01:26:41;;;;;;;;;;;26.00;33.70;;;;;;1500772;77;868;-64
2022/08/12 01:28:44;;;;;;;;;;;26.00;33.80;;;;;;1513557;77;737;-63
2022/08/12 01:30:46;;;;;;;;;;;26.00;33.80;;;;;;1512503;77;715;-65
2022/08/12 01:32:48;;;;;;;;;;;25.90;33.30;;;;;;1480107;78;1149;-64
2022/08/12 01:35:07;;;;;;;;;;;26.00;33.80;;;;;;1514450;77;1927;-63
2022/08/12 01:37:09;;;;;;;;;;;25.90;33.20;;;;;;1513389;77;1746;-65
2022/08/12 01:39:11;;;;;;;;;;;25.90;33.20;;;;;;1511512;77;825;-65
2022/08/12 01:41:12;;;;;;;;;;;26.00;33.80;;;;;;1515186;77;754;-65
2022/08/12 01:43:23;;;;;;;;;;;26.00;33.80;;;;;;1506270;77;1119;-64
2022/08/12 01:45:25;;;;;;;;;;;25.90;33.30;;;;;;1514687;77;789;-64
2022/08/12 01:47:29;;;;;;;;;;;25.90;33.20;;;;;;1513812;77;765;-65
2022/08/12 01:49:49;;;;;;;;;;;25.90;33.20;;;;;;1511517;77;1537;-65
2022/08/12 01:51:56;;;;;;;;;;;25.90;33.30;;;;;;1508632;77;756;-64
2022/08/12 01:54:03;;;;;;;;;;;26.00;33.80;;;;;;1513273;77;1843;-65
2022/08/12 01:56:05;;;;;;;;;;;25.90;33.20;;;;;;1502017;77;1926;-64
2022/08/12 01:58:23;;;;;;;;;;;25.90;33.20;;;;;;1508335;77;733;-66
2022/08/12 02:00:25;;;;;;;;;;;25.90;33.30;;;;;;1497522;77;2213;-65
2022/08/12 02:02:38;;;;;;;;;;;25.90;33.30;;;;;;1502651;76;1192;-66
2022/08/12 02:11:58;;;;;;;;;;;25.90;33.40;;;;;;1506991;77;1658;-65
2022/08/12 02:14:14;;;;;;;;;;;25.90;33.40;;;;;;1537197;72;229261;-58
2022/08/12 02:16:33;;;;;;;;;;;25.90;33.40;;;;;;1563209;74;1929;-57
2022/08/12 02:18:37;;;;;;;;;;;25.90;33.40;;;;;;1571958;74;1457;-57
2022/08/12 02:20:43;;;;;;;;;;;25.90;33.40;;;;;;1563213;74;1789;-57
2022/08/12 02:22:46;;;;;;;;;;;25.80;33.30;;;;;;1533210;75;1184;-57
2022/08/12 02:24:48;;;;;;;;;;;25.80;33.30;;;;;;1585735;73;1025;-58
2022/08/12 02:26:50;;;;;;;;;;;25.90;33.30;;;;;;1591806;73;724;-56
2022/08/12 02:28:52;;;;;;;;;;;25.90;33.30;;;;;;1588132;73;821;-57
2022/08/12 02:30:54;;;;;;;;;;;25.80;33.30;;;;;;1584297;73;662;-56
2022/08/12 02:32:57;;;;;;;;;;;25.90;33.20;;;;;;1591088;73;1562;-58
2022/08/12 02:34:59;;;;;;;;;;;25.90;33.20;;;;;;1592348;73;1913;-55
2022/08/12 02:37:01;;;;;;;;;;;25.90;33.20;;;;;;1595353;73;1046;-55
2022/08/12 02:39:03;;;;;;;;;;;25.90;33.20;;;;;;1585796;73;756;-57
2022/08/12 02:41:05;;;;;;;;;;;25.90;33.30;;;;;;1599582;73;710;-58
2022/08/12 02:43:26;;;;;;;;;;;25.90;33.20;;;;;;1598195;73;1101;-57
2022/08/12 02:45:47;;;;;;;;;;;25.90;33.30;;;;;;1580647;73;725;-57
2022/08/12 02:47:49;;;;;;;;;;;25.90;33.40;;;;;;1601741;73;781;-57
2022/08/12 02:49:57;;;;;;;;;;;25.80;33.40;;;;;;1607529;72;709;-56
2022/08/12 02:51:56;;;;;;;;;;;25.90;33.40;;;;;;1599260;72;923;-58
2022/08/12 02:53:58;;;;;;;;;;;25.90;33.50;;;;;;1599537;72;1072;-59
2022/08/12 02:56:01;;;;;;;;;;;25.90;33.40;;;;;;1585669;73;1945;-58
2022/08/12 02:58:08;;;;;;;;;;;25.80;33.40;;;;;;1613825;72;725;-57
2022/08/12 03:00:08;;;;;;;;;;;25.90;33.40;;;;;;1594122;72;1567;-57
2022/08/12 03:02:11;;;;;;;;;;;25.80;33.30;;;;;;1593501;72;780;-58
2022/08/12 03:04:15;;;;;;;;;;;25.80;33.40;;;;;;1616227;72;760;-55
2022/08/12 03:06:20;;;;;;;;;;;25.90;33.40;;;;;;1599596;73;1841;-56
2022/08/12 03:08:23;;;;;;;;;;;25.80;33.40;;;;;;1595942;72;1813;-56
2022/08/12 03:10:25;;;;;;;;;;;25.80;33.40;;;;;;1610588;72;763;-58
2022/08/12 03:12:28;;;;;;;;;;;25.80;33.40;;;;;;1607021;72;1097;-57
2022/08/12 03:14:30;;;;;;;;;;;25.90;33.50;;;;;;1604607;72;1395;-58
2022/08/12 03:16:32;;;;;;;;;;;25.90;33.50;;;;;;1597125;72;1907;-57
2022/08/12 03:18:34;;;;;;;;;;;25.80;33.50;;;;;;1611751;72;786;-58
2022/08/12 03:20:37;;;;;;;;;;;25.90;33.40;;;;;;1617083;72;724;-59
2022/08/12 03:22:41;;;;;;;;;;;25.80;33.40;;;;;;1592737;72;1148;-57
2022/08/12 03:24:44;;;;;;;;;;;25.90;33.40;;;;;;1590340;73;801;-57
2022/08/12 03:26:47;;;;;;;;;;;25.90;33.40;;;;;;1589910;72;728;-56
2022/08/12 03:28:49;;;;;;;;;;;25.80;33.40;;;;;;1604540;72;1444;-56
2022/08/12 03:30:52;;;;;;;;;;;25.80;33.40;;;;;;1591435;72;697;-56
2022/08/12 03:32:54;;;;;;;;;;;25.90;33.40;;;;;;1589780;72;1132;-55
2022/08/12 03:34:56;;;;;;;;;;;25.80;33.40;;;;;;1591594;72;1949;-57
2022/08/12 03:36:58;;;;;;;;;;;25.80;33.50;;;;;;1592871;72;825;-57
2022/08/12 03:41:36;;;;;;;;;;;25.80;33.40;;;;;;1592337;72;1653;-56
2022/08/12 04:02:19;;;;;;;;;;;25.70;33.60;;;;;;1604355;72;1630;-55
2022/08/12 04:04:22;;;;;;;;;;;25.70;33.60;;;;;;1602132;72;695;-56
2022/08/12 04:06:25;;;;;;;;;;;25.70;33.60;;;;;;1600227;72;677;-56
2022/08/12 04:08:27;;;;;;;;;;;25.80;33.60;;;;;;1615883;72;1037;-56
2022/08/12 04:14:55;;;;;;;;;;;25.80;33.60;;;;;;1612732;72;1625;-55
2022/08/12 04:16:57;;;;;;;;;;;25.80;33.60;;;;;;1604358;72;1919;-55
2022/08/12 04:18:58;;;;;;;;;;;25.70;33.60;;;;;;1606574;72;708;-55
2022/08/12 04:21:01;;;;;;;;;;;25.70;33.50;;;;;;1592554;72;677;-54
2022/08/12 04:23:04;;;;;;;;;;;25.80;33.60;;;;;;1601683;72;1100;-54
2022/08/12 04:25:06;;;;;;;;;;;25.70;33.60;;;;;;1593867;72;1521;-55
2022/08/12 04:27:09;;;;;;;;;;;25.70;33.50;;;;;;1593285;72;735;-54
2022/08/12 04:29:11;;;;;;;;;;;25.70;33.50;;;;;;1608110;72;812;-55
2022/08/12 04:31:13;;;;;;;;;;;25.70;33.50;;;;;;1610792;72;699;-54
2022/08/12 04:33:14;;;;;;;;;;;25.80;33.50;;;;;;1611364;72;1151;-55
2022/08/12 04:35:17;;;;;;;;;;;25.70;33.50;;;;;;1610289;72;1945;-54
2022/08/12 04:37:18;;;;;;;;;;;25.70;33.40;;;;;;1599765;73;717;-55
2022/08/12 04:39:23;;;;;;;;;;;25.70;33.50;;;;;;1587833;73;1503;-56
2022/08/12 04:41:26;;;;;;;;;;;25.70;33.50;;;;;;1620962;72;815;-55
2022/08/12 04:43:28;;;;;;;;;;;25.80;33.50;;;;;;1599189;73;1132;-55
2022/08/12 04:45:31;;;;;;;;;;;25.80;33.50;;;;;;1602125;73;673;-55
2022/08/12 04:47:33;;;;;;;;;;;25.80;33.40;;;;;;1597028;73;677;-55
2022/08/12 04:49:35;;;;;;;;;;;25.80;33.40;;;;;;1591412;72;724;-55
2022/08/12 04:51:37;;;;;;;;;;;25.70;33.40;;;;;;1604917;72;739;-55
2022/08/12 04:53:42;;;;;;;;;;;25.70;33.50;;;;;;1603356;72;1593;-55
2022/08/12 04:55:45;;;;;;;;;;;25.70;33.50;;;;;;1601416;72;1930;-55
2022/08/12 04:57:47;;;;;;;;;;;25.70;33.50;;;;;;1617467;72;780;-55
2022/08/12 04:59:49;;;;;;;;;;;25.70;33.50;;;;;;1604039;72;689;-55
2022/08/12 05:01:52;;;;;;;;;;;25.70;33.50;;;;;;1608462;73;745;-55
2022/08/12 05:03:54;;;;;;;;;;;25.70;33.50;;;;;;1608678;72;1087;-55
2022/08/12 05:05:56;;;;;;;;;;;25.70;33.50;;;;;;1609600;73;803;-57
2022/08/12 05:07:58;;;;;;;;;;;25.70;33.60;;;;;;1605965;72;1777;-56
2022/08/12 05:09:59;;;;;;;;;;;25.70;33.60;;;;;;1598694;72;576;-55
2022/08/12 05:12:02;;;;;;;;;;;25.70;33.50;;;;;;1594457;72;728;-55
2022/08/12 05:14:04;;;;;;;;;;;25.70;33.60;;;;;;1604150;72;1058;-56
2022/08/12 05:16:06;;;;;;;;;;;25.70;33.60;;;;;;1594037;72;1941;-57
2022/08/12 05:18:08;;;;;;;;;;;25.70;33.50;;;;;;1596246;72;721;-57
2022/08/12 05:20:10;;;;;;;;;;;25.70;33.50;;;;;;1611885;72;725;-60
2022/08/12 05:22:12;;;;;;;;;;;25.70;33.60;;;;;;1592646;72;1783;-56
2022/08/12 05:24:14;;;;;;;;;;;25.80;33.50;;;;;;1602162;72;615;-58
2022/08/12 05:26:16;;;;;;;;;;;25.70;33.50;;;;;;1610407;72;739;-58
2022/08/12 05:28:18;;;;;;;;;;;25.70;33.60;;;;;;1608199;72;715;-59
2022/08/12 05:30:20;;;;;;;;;;;25.80;33.60;;;;;;1593766;72;809;-57
2022/08/12 05:32:24;;;;;;;;;;;25.70;33.60;;;;;;1598395;72;1187;-58
2022/08/12 05:34:28;;;;;;;;;;;25.80;33.60;;;;;;1613789;72;1594;-58
2022/08/12 05:36:29;;;;;;;;;;;25.70;33.60;;;;;;1600352;72;1917;-58
2022/08/12 05:40:51;;;;;;;;;;;25.70;33.60;;;;;;1604241;73;1637;-57
2022/08/12 05:42:52;;;;;;;;;;;25.80;33.70;;;;;;1611720;72;1143;-56
2022/08/12 05:44:54;;;;;;;;;;;25.70;33.70;;;;;;1609174;72;694;-57
2022/08/12 05:46:57;;;;;;;;;;;25.80;33.70;;;;;;1590884;72;1084;-57
2022/08/12 05:49:02;;;;;;;;;;;25.80;33.60;;;;;;1604598;72;1505;-58
2022/08/12 05:51:04;;;;;;;;;;;25.80;33.60;;;;;;1599325;72;705;-60
2022/08/12 05:53:06;;;;;;;;;;;25.80;33.60;;;;;;1606747;72;1146;-59
2022/08/12 05:55:09;;;;;;;;;;;25.80;33.60;;;;;;1602049;72;789;-58
2022/08/12 05:57:11;;;;;;;;;;;25.80;33.70;;;;;;1596892;72;1894;-60
2022/08/12 05:59:13;;;;;;;;;;;25.90;33.60;;;;;;1597609;72;745;-58
2022/08/12 06:01:15;;;;;;;;;;;25.80;33.70;;;;;;1600134;72;730;-60
2022/08/12 06:03:17;;;;;;;;;;;25.90;33.60;;;;;;1593682;72;1539;-58
2022/08/12 06:05:19;;;;;;;;;;;25.80;33.60;;;;;;1611394;72;711;-60
2022/08/12 06:07:21;;;;;;;;;;;25.90;33.70;;;;;;1592363;73;773;-59
2022/08/12 06:09:25;;;;;;;;;;;25.90;33.60;;;;;;1610578;72;707;-58
2022/08/12 06:11:27;;;;;;;;;;;25.90;33.50;;;;;;1591341;72;765;-58
2022/08/12 06:13:29;;;;;;;;;;;25.80;33.50;;;;;;1599509;73;1183;-56
2022/08/12 06:15:31;;;;;;;;;;;25.80;33.60;;;;;;1598149;73;772;-56
2022/08/12 06:17:33;;;;;;;;;;;25.80;33.50;;;;;;1602637;73;1941;-59
2022/08/12 06:19:34;;;;;;;;;;;25.90;33.60;;;;;;1598819;72;697;-59
2022/08/12 06:21:41;;;;;;;;;;;25.90;33.60;;;;;;1601439;72;736;-56
2022/08/12 06:23:44;;;;;;;;;;;25.90;33.60;;;;;;1612286;72;1262;-56
2022/08/12 06:25:45;;;;;;;;;;;25.90;33.70;;;;;;1610316;72;714;-56
2022/08/12 06:27:48;;;;;;;;;;;26.00;34.10;;;;;;1603385;72;717;-56
2022/08/12 06:29:50;;;;;;;;;;;25.90;33.50;;;;;;1614083;72;760;-57
2022/08/12 06:31:52;;;;;;;;;;;26.00;33.90;;;;;;1603033;72;1460;-56
2022/08/12 06:33:54;;;;;;;;;;;26.00;34.00;;;;;;1611470;72;1068;-56
2022/08/12 06:35:56;;;;;;;;;;;26.00;33.90;;;;;;1602601;72;1941;-58
2022/08/12 06:37:57;;;;;;;;;;;26.00;34.30;;;;;;1609328;72;709;-57
2022/08/12 06:39:59;;;;;;;;;;;26.10;34.00;;;;;;1604530;72;674;-57
2022/08/12 06:44:21;;;;;;;;;;;26.00;34.40;;;;;;1602041;72;1675;-56
2022/08/12 06:46:23;;;;;;;;;;;26.00;34.20;;;;;;1595183;72;1570;-57
2022/08/12 06:48:26;;;;;;;;;;;26.00;34.00;;;;;;1608566;72;713;-55
2022/08/12 06:50:29;;;;;;;;;;;26.00;34.10;;;;;;1603712;72;830;-58
2022/08/12 06:52:31;;;;;;;;;;;26.10;34.10;;;;;;1609295;72;1124;-54
2022/08/12 06:54:34;;;;;;;;;;;26.10;34.00;;;;;;1610903;73;817;-58
2022/08/12 06:56:36;;;;;;;;;;;26.10;34.00;;;;;;1599042;72;1905;-54
2022/08/12 06:58:38;;;;;;;;;;;26.30;33.80;;;;;;1594067;73;736;-58
2022/08/12 07:00:42;;;;;;;;;;;26.20;33.80;;;;;;1610336;72;1650;-56
2022/08/12 07:02:44;;;;;;;;;;;26.10;33.80;;;;;;1614476;73;1352;-59
2022/08/12 07:04:46;;;;;;;;;;;26.10;34.00;;;;;;1606107;72;758;-56
2022/08/12 07:06:48;;;;;;;;;;;26.10;34.10;;;;;;1606576;72;779;-54
2022/08/12 07:08:50;;;;;;;;;;;25.90;33.60;;;;;;1600719;72;727;-55
2022/08/12 07:10:58;;;;;;;;;;;26.00;34.30;;;;;;1605108;73;705;-59
2022/08/12 07:13:01;;;;;;;;;;;25.90;33.80;;;;;;1609347;72;1513;-58
2022/08/12 07:15:03;;;;;;;;;;;25.90;33.80;;;;;;1600904;72;784;-56
2022/08/12 07:17:06;;;;;;;;;;;25.90;33.90;;;;;;1593367;72;1925;-56
2022/08/12 07:19:08;;;;;;;;;;;25.90;33.90;;;;;;1609010;72;739;-56
2022/08/12 07:21:11;;;;;;;;;;;25.90;34.00;;;;;;1598837;72;576;-55
2022/08/12 07:23:13;;;;;;;;;;;25.90;34.00;;;;;;1595556;73;1145;-58
2022/08/12 07:25:38;;;;;;;;;;;25.90;34.00;;;;;;1593240;72;699;-57
2022/08/12 07:27:41;;;;;;;;;;;25.90;34.10;;;;;;1606094;72;1495;-55
2022/08/12 07:29:43;;;;;;;;;;;25.90;34.10;;;;;;1598686;72;1096;-58
2022/08/12 07:31:45;;;;;;;;;;;25.90;34.10;;;;;;1606882;72;694;-55
2022/08/12 07:33:48;;;;;;;;;;;26.00;34.70;;;;;;1607626;72;1113;-56
2022/08/12 07:35:52;;;;;;;;;;;25.90;34.10;;;;;;1595893;73;684;-58
2022/08/12 07:37:56;;;;;;;;;;;25.90;34.10;;;;;;1601739;72;1890;-56
2022/08/12 07:39:58;;;;;;;;;;;25.90;34.10;;;;;;1592778;72;678;-58
2022/08/12 07:42:00;;;;;;;;;;;25.90;34.00;;;;;;1599780;72;1461;-58
2022/08/12 07:44:03;;;;;;;;;;;25.90;34.10;;;;;;1592117;72;1123;-57
2022/08/12 07:46:06;;;;;;;;;;;25.90;34.00;;;;;;1608567;72;642;-58
2022/08/12 07:48:08;;;;;;;;;;;25.90;34.00;;;;;;1602579;72;659;-56
2022/08/12 07:50:13;;;;;;;;;;;25.90;34.00;;;;;;1593450;72;709;-55
2022/08/12 07:52:15;;;;;;;;;;;25.90;34.00;;;;;;1593996;72;1109;-59
2022/08/12 07:54:18;;;;;;;;;;;25.90;34.00;;;;;;1596235;72;725;-58
2022/08/12 07:56:19;;;;;;;;;;;25.90;34.00;;;;;;1596463;72;1909;-59
2022/08/12 07:58:24;;;;;;;;;;;26.00;34.50;;;;;;1595491;72;817;-59
2022/08/12 08:00:26;;;;;;;;;;;26.00;34.50;;;;;;1598235;73;1598;-57
2022/08/12 08:02:27;;;;;;;;;;;26.00;34.50;;;;;;1602649;72;1163;-58
2022/08/12 08:06:49;;;;;;;;;;;26.00;34.50;;;;;;1599250;73;725;-55
2022/08/12 08:08:55;;;;;;;;;;;26.00;34.50;;;;;;1610049;72;713;-58
2022/08/12 08:12:52;;;;;;;;;;;25.90;34.00;;;;;;1602600;72;1598;-58
2022/08/12 08:13:03;;;;;;;;;;;25.90;34.00;;;;;;1594195;72;1573;-58
2022/08/12 08:15:03;;;;;;;;;;;25.90;33.90;;;;;;1574442;71;227353;-67
2022/08/12 08:17:05;;;;;;;;;;;26.00;34.50;;;;;;1573925;75;1941;-67
2022/08/12 08:19:08;;;;;;;;;;;26.00;34.50;;;;;;1566573;75;770;-67
2022/08/12 08:21:10;;;;;;;;;;;25.90;34.00;;;;;;1558212;75;740;-67
2022/08/12 08:23:13;;;;;;;;;;;25.90;34.00;;;;;;1569843;75;1540;-67
2022/08/12 08:25:19;;;;;;;;;;;26.00;34.50;;;;;;1544559;75;1133;-67
2022/08/12 08:27:20;;;;;;;;;;;25.90;33.90;;;;;;1533297;75;1889;-67
2022/08/12 08:29:23;;;;;;;;;;;26.00;34.40;;;;;;1546864;75;721;-67
2022/08/12 08:31:25;;;;;;;;;;;26.00;34.50;;;;;;1543789;75;745;-67
2022/08/12 08:33:26;;;;;;;;;;;26.00;34.50;;;;;;1539173;75;1130;-67
2022/08/12 08:35:28;;;;;;;;;;;26.00;34.30;;;;;;1541488;76;697;-67
2022/08/12 08:37:31;;;;;;;;;;;26.00;34.40;;;;;;1550591;75;1946;-67
2022/08/12 08:39:33;;;;;;;;;;;26.00;34.30;;;;;;1542440;76;761;-68
2022/08/12 08:43:59;;;;;;;;;;;26.00;34.20;;;;;;1542806;76;1080;-67
2022/08/12 08:46:04;;;;;;;;;;;26.00;34.20;;;;;;1543657;76;1104;-67
2022/08/12 08:48:03;;;;;;;;;;;26.00;34.20;;;;;;1530612;76;1637;-67
2022/08/12 08:50:06;;;;;;;;;;;26.00;34.20;;;;;;1538505;76;816;-67
2022/08/12 08:52:08;;;;;;;;;;;26.00;34.30;;;;;;1531785;76;1605;-68
2022/08/12 08:54:11;;;;;;;;;;;26.00;34.20;;;;;;1547581;76;1145;-67
2022/08/12 08:56:13;;;;;;;;;;;26.00;34.10;;;;;;1544050;75;761;-67
2022/08/12 08:58:15;;;;;;;;;;;26.00;34.10;;;;;;1538587;75;1920;-67
2022/08/12 09:00:20;;;;;;;;;;;26.10;34.20;;;;;;1551441;75;890;-67
2022/08/12 09:02:22;;;;;;;;;;;26.10;34.10;;;;;;1531869;75;609;-67
2022/08/12 09:04:24;;;;;;;;;;;26.10;34.00;;;;;;1544420;75;1094;-67
2022/08/12 09:06:25;;;;;;;;;;;26.10;34.10;;;;;;1548336;75;1581;-67
2022/08/12 09:08:28;;;;;;;;;;;26.00;34.10;;;;;;1552156;75;727;-67
2022/08/12 09:10:30;;;;;;;;;;;26.00;33.60;;;;;;1547689;75;781;-67
2022/08/12 09:14:53;;;;;;;;;;;26.00;34.30;;;;;;1550368;76;1622;-64
2022/08/12 09:16:54;;;;;;;;;;;25.90;33.10;;;;;;1551333;76;1906;-64
2022/08/12 09:18:56;;;;;;;;;;;25.90;33.40;;;;;;1543348;76;837;-62
2022/08/12 09:20:58;;;;;;;;;;;25.90;33.20;;;;;;1545164;75;1542;-62
2022/08/12 09:23:00;;;;;;;;;;;25.90;33.60;;;;;;1548648;75;896;-66
2022/08/12 09:25:05;;;;;;;;;;;25.90;33.80;;;;;;1555066;75;1110;-66
2022/08/12 09:27:07;;;;;;;;;;;25.80;33.80;;;;;;1555380;74;1769;-65
2022/08/12 09:29:09;;;;;;;;;;;25.80;34.10;;;;;;1564404;75;837;-66
2022/08/12 09:31:10;;;;;;;;;;;25.90;33.90;;;;;;1557047;75;840;-66
2022/08/12 09:33:12;;;;;;;;;;;25.80;33.40;;;;;;1558665;75;851;-66
2022/08/12 09:35:14;;;;;;;;;;;25.90;33.70;;;;;;1549283;74;1749;-66
2022/08/12 09:37:16;;;;;;;;;;;25.90;32.90;;;;;;1558934;74;1926;-66
2022/08/12 09:39:18;;;;;;;;;;;25.90;32.50;;;;;;1547784;75;774;-67
2022/08/12 09:41:21;;;;;;;;;;;25.90;32.80;;;;;;1548067;75;761;-66
2022/08/12 09:45:48;;;;;;;;;;;25.90;33.00;;;;;;1541115;74;828;-66
2022/08/12 09:47:47;;;;;;;;;;;25.90;32.50;;;;;;1550057;74;1674;-67
2022/08/12 09:49:49;;;;;;;;;;;25.80;32.30;;;;;;1550044;75;706;-66
2022/08/12 09:51:53;;;;;;;;;;;25.80;32.10;;;;;;1547702;74;793;-66
2022/08/12 09:53:55;;;;;;;;;;;25.90;32.50;;;;;;1556209;74;1703;-66
2022/08/12 09:55:57;;;;;;;;;;;25.90;32.50;;;;;;1553488;75;785;-66
2022/08/12 09:57:59;;;;;;;;;;;25.90;32.60;;;;;;1551809;75;1923;-67
2022/08/12 10:00:01;;;;;;;;;;;25.90;31.90;;;;;;1559718;74;953;-67
2022/08/12 10:02:03;;;;;;;;;;;26.00;32.30;;;;;;1552045;75;1364;-67
2022/08/12 10:04:11;;;;;;;;;;;25.90;31.60;;;;;;1552774;75;1135;-67
2022/08/12 10:06:10;;;;;;;;;;;25.90;31.40;;;;;;1556900;75;1481;-66
2022/08/12 10:08:13;;;;;;;;;;;25.90;31.80;;;;;;1548172;76;866;-67
2022/08/12 10:10:15;;;;;;;;;;;25.90;31.80;;;;;;1559099;75;755;-67
2022/08/12 10:14:37;;;;;;;;;;;25.80;32.30;;;;;;1560646;75;1687;-67
2022/08/12 10:16:43;;;;;;;;;;;25.90;31.90;;;;;;1561043;75;1597;-66
2022/08/12 10:18:46;;;;;;;;;;;25.90;31.80;;;;;;1561051;75;1907;-67
2022/08/12 10:20:48;;;;;;;;;;;25.80;31.90;;;;;;1552470;75;793;-67
2022/08/12 10:22:57;;;;;;;;;;;25.80;31.70;;;;;;1548521;75;729;-66
2022/08/12 10:29:46;;;;;;;;;;;25.90;31.30;;;;;;1551742;75;1654;-67
2022/08/12 10:31:54;;;;;;;;;;;26.00;32.10;;;;;;1555430;75;1557;-68
2022/08/12 10:33:53;;;;;;;;;;;26.00;31.90;;;;;;1560583;75;1169;-67
2022/08/12 10:35:57;;;;;;;;;;;26.00;31.90;;;;;;1561031;75;809;-67
2022/08/12 10:38:01;;;;;;;;;;;25.90;31.50;;;;;;1550331;75;1916;-68
2022/08/12 10:40:03;;;;;;;;;;;26.00;32.20;;;;;;1557592;75;737;-68
2022/08/12 10:44:28;;;;;;;;;;;26.00;32.30;;;;;;1548867;75;1687;-67
2022/08/12 10:46:31;;;;;;;;;;;25.90;31.00;;;;;;1542634;75;717;-67
2022/08/12 10:48:33;;;;;;;;;;;26.00;31.60;;;;;;1554520;75;715;-67
2022/08/12 10:50:36;;;;;;;;;;;25.90;30.90;;;;;;1552570;76;731;-66
2022/08/12 10:52:40;;;;;;;;;;;25.90;31.30;;;;;;1556049;74;791;-67
2022/08/12 10:54:41;;;;;;;;;;;25.90;31.50;;;;;;1551374;74;1514;-68
2022/08/12 10:56:48;;;;;;;;;;;25.90;31.70;;;;;;1561268;75;776;-67
2022/08/12 10:58:47;;;;;;;;;;;25.90;31.30;;;;;;1560995;75;1919;-65
2022/08/12 11:00:49;;;;;;;;;;;25.90;31.80;;;;;;1558570;75;665;-66
2022/08/12 11:02:56;;;;;;;;;;;25.90;31.80;;;;;;1551264;75;749;-67
2022/08/12 11:04:58;;;;;;;;;;;25.90;31.70;;;;;;1556415;75;1666;-66
2022/08/12 11:07:02;;;;;;;;;;;25.90;31.70;;;;;;1554882;75;751;-67
2022/08/12 11:09:04;;;;;;;;;;;25.90;31.80;;;;;;1560443;75;853;-67
2022/08/12 11:11:07;;;;;;;;;;;25.90;31.60;;;;;;1551774;74;720;-67
2022/08/12 11:13:09;;;;;;;;;;;25.90;31.30;;;;;;1545407;76;1534;-67
2022/08/12 11:15:11;;;;;;;;;;;25.90;31.50;;;;;;1554246;75;1129;-67
2022/08/12 11:17:13;;;;;;;;;;;25.80;31.80;;;;;;1546743;76;728;-67
2022/08/12 11:19:15;;;;;;;;;;;25.80;31.50;;;;;;1555998;74;1905;-66
2022/08/12 11:21:17;;;;;;;;;;;25.90;31.80;;;;;;1564406;75;790;-67
2022/08/12 11:23:19;;;;;;;;;;;25.80;31.80;;;;;;1562052;74;771;-67
2022/08/12 11:25:21;;;;;;;;;;;25.70;31.80;;;;;;1553994;74;771;-66
2022/08/12 11:27:23;;;;;;;;;;;25.80;32.10;;;;;;1554825;74;1580;-67
2022/08/12 11:29:25;;;;;;;;;;;25.70;32.00;;;;;;1558055;74;730;-67
2022/08/12 11:31:27;;;;;;;;;;;25.70;32.00;;;;;;1556703;75;756;-67
2022/08/12 11:33:29;;;;;;;;;;;25.80;32.00;;;;;;1558376;74;1139;-67
2022/08/12 11:35:31;;;;;;;;;;;25.70;32.00;;;;;;1561117;75;785;-67
2022/08/12 11:37:34;;;;;;;;;;;25.70;32.00;;;;;;1543355;75;1929;-67
2022/08/12 11:39:36;;;;;;;;;;;25.70;32.10;;;;;;1551380;74;716;-67
2022/08/12 11:41:39;;;;;;;;;;;25.80;32.20;;;;;;1562617;75;1502;-67
2022/08/12 11:43:41;;;;;;;;;;;25.70;32.10;;;;;;1549620;74;1188;-67
2022/08/12 11:45:42;;;;;;;;;;;25.70;32.10;;;;;;1563126;75;725;-66
2022/08/12 11:47:44;;;;;;;;;;;25.70;32.10;;;;;;1563498;74;615;-67
2022/08/12 11:49:46;;;;;;;;;;;25.80;31.90;;;;;;1562990;75;906;-67
2022/08/12 11:51:48;;;;;;;;;;;25.80;32.00;;;;;;1556351;75;811;-67
2022/08/12 11:53:50;;;;;;;;;;;25.70;31.50;;;;;;1554421;75;1140;-66
2022/08/12 11:55:52;;;;;;;;;;;25.70;31.70;;;;;;1550795;74;1677;-65
2022/08/12 11:57:54;;;;;;;;;;;25.80;32.00;;;;;;1563160;74;1937;-67
2022/08/12 11:59:56;;;;;;;;;;;25.80;31.80;;;;;;1555680;75;784;-67
2022/08/12 12:01:58;;;;;;;;;;;25.70;31.50;;;;;;1562783;75;747;-67
2022/08/12 12:04:00;;;;;;;;;;;25.70;31.70;;;;;;1551512;75;1136;-67
2022/08/12 12:06:02;;;;;;;;;;;25.70;31.90;;;;;;1558283;75;815;-67
2022/08/12 12:08:04;;;;;;;;;;;25.70;31.60;;;;;;1559168;74;828;-66
2022/08/12 12:10:06;;;;;;;;;;;25.70;31.50;;;;;;1551790;75;769;-66
2022/08/12 12:12:08;;;;;;;;;;;25.70;31.50;;;;;;1561543;75;714;-66
2022/08/12 12:14:09;;;;;;;;;;;25.70;31.10;;;;;;1556048;76;1136;-66
2022/08/12 12:16:11;;;;;;;;;;;25.70;31.60;;;;;;1561536;76;809;-67
2022/08/12 12:18:15;;;;;;;;;;;25.70;30.80;;;;;;1556458;76;1940;-66
2022/08/12 12:20:17;;;;;;;;;;;25.70;31.60;;;;;;1549431;74;1580;-67
2022/08/12 12:22:19;;;;;;;;;;;25.70;31.40;;;;;;1555441;75;1542;-67
2022/08/12 12:24:20;;;;;;;;;;;25.80;31.20;;;;;;1562116;75;1192;-66
2022/08/12 12:26:22;;;;;;;;;;;25.70;30.70;;;;;;1556050;74;810;-66
2022/08/12 12:28:24;;;;;;;;;;;25.80;29.90;;;;;;1561137;75;698;-67
2022/08/12 12:30:26;;;;;;;;;;;25.80;30.80;;;;;;1559299;74;723;-66
2022/08/12 12:32:28;;;;;;;;;;;25.70;30.00;;;;;;1551156;74;568;-67
2022/08/12 12:34:30;;;;;;;;;;;25.70;30.80;;;;;;1551583;75;1130;-67
2022/08/12 12:36:32;;;;;;;;;;;25.70;30.30;;;;;;1559945;75;1299;-67
2022/08/12 12:38:34;;;;;;;;;;;25.70;30.80;;;;;;1561243;75;1942;-67
2022/08/12 12:40:36;;;;;;;;;;;25.70;31.00;;;;;;1562105;75;848;-66
2022/08/12 12:42:38;;;;;;;;;;;25.70;30.70;;;;;;1560728;75;722;-67
2022/08/12 12:44:40;;;;;;;;;;;25.70;30.90;;;;;;1561530;74;1130;-66
2022/08/12 12:46:42;;;;;;;;;;;25.70;30.90;;;;;;1561678;75;738;-66
2022/08/12 12:48:44;;;;;;;;;;;25.70;30.50;;;;;;1561346;74;757;-66
2022/08/12 12:53:09;;;;;;;;;;;25.70;30.70;;;;;;1554138;74;1630;-66
2022/08/12 12:55:11;;;;;;;;;;;25.70;30.60;;;;;;1561724;74;1101;-67
2022/08/12 12:57:13;;;;;;;;;;;25.70;29.70;;;;;;1561381;75;800;-67
2022/08/12 12:59:17;;;;;;;;;;;25.70;30.70;;;;;;1559014;75;1965;-67
2022/08/12 13:01:21;;;;;;;;;;;25.60;30.20;;;;;;1558389;76;788;-66
2022/08/12 13:03:23;;;;;;;;;;;25.60;30.80;;;;;;1557896;74;1164;-66
2022/08/12 13:05:26;;;;;;;;;;;25.70;30.70;;;;;;1556498;75;1594;-66
2022/08/12 13:07:27;;;;;;;;;;;25.70;30.70;;;;;;1563003;75;784;-67
2022/08/12 13:09:29;;;;;;;;;;;25.70;30.50;;;;;;1553428;74;725;-67
2022/08/12 13:11:31;;;;;;;;;;;25.70;29.90;;;;;;1554836;75;899;-67
2022/08/12 13:13:35;;;;;;;;;;;25.70;30.70;;;;;;1550590;74;1092;-67
2022/08/12 13:15:37;;;;;;;;;;;25.70;30.50;;;;;;1562964;75;774;-67
2022/08/12 13:17:39;;;;;;;;;;;25.70;30.50;;;;;;1562650;75;792;-65
2022/08/12 13:19:40;;;;;;;;;;;25.70;30.50;;;;;;1550926;75;1934;-67
2022/08/12 13:22:16;;;;;;;;;;;25.70;30.20;;;;;;1561334;74;727;-66
2022/08/12 13:23:46;;;;;;;;;;;25.70;30.70;;;;;;1557617;74;1401;-66
2022/08/12 13:25:48;;;;;;;;;;;25.70;30.00;;;;;;1560629;76;752;-67
2022/08/12 13:27:50;;;;;;;;;;;25.70;29.70;;;;;;1562687;76;785;-67
2022/08/12 13:29:53;;;;;;;;;;;25.70;30.00;;;;;;1548651;76;638;-66
2022/08/12 13:31:56;;;;;;;;;;;25.70;30.20;;;;;;1558080;75;797;-66
2022/08/12 13:33:59;;;;;;;;;;;25.60;30.10;;;;;;1550322;75;1655;-66
2022/08/12 13:36:02;;;;;;;;;;;25.60;29.80;;;;;;1559237;74;780;-67
2022/08/12 13:38:09;;;;;;;;;;;25.60;29.90;;;;;;1559308;74;763;-66
2022/08/12 13:40:09;;;;;;;;;;;25.60;29.40;;;;;;1562747;75;1920;-67
2022/08/12 13:42:12;;;;;;;;;;;25.50;30.20;;;;;;1561674;75;813;-67
2022/08/12 13:44:14;;;;;;;;;;;25.70;30.20;;;;;;1560094;75;1244;-66
2022/08/12 13:46:16;;;;;;;;;;;25.60;30.10;;;;;;1559644;75;778;-67
2022/08/12 13:48:18;;;;;;;;;;;25.60;29.40;;;;;;1562008;75;1512;-67
2022/08/12 13:50:22;;;;;;;;;;;25.70;28.80;;;;;;1557723;74;817;-67
2022/08/12 13:52:24;;;;;;;;;;;25.60;29.50;;;;;;1560750;75;1792;-66
2022/08/12 13:54:25;;;;;;;;;;;25.60;29.50;;;;;;1560494;75;1188;-66
2022/08/12 13:56:32;;;;;;;;;;;25.60;28.20;;;;;;1559335;74;731;-67
2022/08/12 13:58:33;;;;;;;;;;;25.60;29.10;;;;;;1551512;75;1929;-67
2022/08/12 14:00:37;;;;;;;;;;;25.50;28.70;;;;;;1559609;74;791;-66